EGLM weather

White Waltham Airfield
Maidenhead, England, United Kingdom

Public forecast

Using degrees Celsius for public forecast. Weather courtesy of forecast.io.

Closest aviation weather report (METAR) to White Waltham Airfield

Closest report is London Heathrow Airport, 11.8 nm (21.9 km) E. Retrieved 2020/04/08 03:50 UTC (19 minutes ago):

EGLL 080350Z AUTO VRB02KT 9999 NCD 10/05 Q1025 NOSIG

Closest aviation forecast (TAF) to White Waltham Airfield

Closest forecast is London Heathrow Airport, 11.8 nm (21.9 km) E. Retrieved 2020-04-08 00:00 UTC (4 hours ago):

TAF EGLL 072256Z 0800/0906 05005KT 9999 FEW045 TEMPO 0800/0808 7000 PROB30 0803/0807 0500 FG VV/// PROB30 TEMPO 0813/0818 7000 SHRA PROB30 0903/0906 0500 FG VV///